Time;durP1;ratioP1;P1;durP2;ratioP2;P2;SDS_P1;SDS_P2;PMS_P1;PMS_P2;Temp;Humidity;BMP_temperature;BMP_pressure;BME280_temperature;BME280_humidity;BME280_pressure;Samples;Min_cycle;Max_cycle;Signal;HPM_P1;HPM_P2
2022/03/12 00:01:01;;;;;;;10.23;5.27;;;;;;;0.97;46.06;101306.44;5037456;28;20241;-82
2022/03/12 00:03:32;;;;;;;8.90;5.70;;;;;;;0.95;46.16;101308.22;5026306;28;20629;-82
2022/03/12 00:06:00;;;;;;;10.20;5.57;;;;;;;0.91;45.92;101306.53;5029831;28;20202;-81
2022/03/12 00:08:34;;;;;;;9.07;5.97;;;;;;;0.88;46.34;101311.84;5023571;28;20767;-82
2022/03/12 00:11:00;;;;;;;8.87;5.53;;;;;;;0.84;46.05;101315.38;5037591;28;20202;-81
2022/03/12 00:13:28;;;;;;;8.33;5.13;;;;;;;0.82;46.15;101320.63;5031386;28;20880;-82
2022/03/12 00:15:59;;;;;;;8.27;5.30;;;;;;;0.76;45.95;101311.97;5030078;28;20206;-83
2022/03/12 00:18:30;;;;;;;11.27;5.80;;;;;;;0.73;46.50;101299.75;5037430;28;20230;-82
2022/03/12 00:20:56;;;;;;;9.13;6.20;;;;;;;0.69;46.66;101313.81;5035656;28;20202;-82
2022/03/12 00:23:28;;;;;;;7.60;5.50;;;;;;;0.64;46.96;101307.75;5035797;28;20293;-82
2022/03/12 00:25:54;;;;;;;9.43;5.87;;;;;;;0.62;47.07;101304.28;5031630;28;20248;-82
2022/03/12 00:28:21;;;;;;;9.77;6.03;;;;;;;0.60;46.92;101306.06;5024168;28;20325;-82
2022/03/12 00:30:51;;;;;;;9.83;5.30;;;;;;;0.58;46.83;101303.44;5020762;28;20206;-83
2022/03/12 00:33:19;;;;;;;9.00;5.80;;;;;;;0.57;47.24;101299.09;5027593;28;20236;-81
2022/03/12 00:35:48;;;;;;;8.33;5.50;;;;;;;0.56;47.25;101297.34;5018661;28;20214;-82
2022/03/12 00:38:14;;;;;;;9.17;6.00;;;;;;;0.52;47.03;101295.69;5018838;28;20739;-83
2022/03/12 00:40:41;;;;;;;10.10;5.50;;;;;;;0.48;47.02;101296.59;5029928;28;20504;-82
2022/03/12 00:43:09;;;;;;;8.97;5.63;;;;;;;0.45;47.24;101295.75;5027395;28;20644;-83
2022/03/12 00:45:36;;;;;;;6.30;5.43;;;;;;;0.38;47.50;101287.09;5030867;28;20210;-83
2022/03/12 00:48:04;;;;;;;9.43;6.40;;;;;;;0.34;47.47;101293.28;5038309;28;20232;-83
2022/03/12 00:50:31;;;;;;;8.73;5.80;;;;;;;0.29;47.64;101295.94;5029827;28;20585;-83
2022/03/12 00:52:57;;;;;;;7.90;5.80;;;;;;;0.25;47.68;101290.75;5034229;28;20888;-83
2022/03/12 00:55:24;;;;;;;9.07;6.27;;;;;;;0.22;47.93;101301.25;5037687;28;20203;-83
2022/03/12 00:57:50;;;;;;;8.17;5.73;;;;;;;0.18;47.85;101291.72;5037616;28;20233;-83
2022/03/12 01:00:20;;;;;;;8.07;5.80;;;;;;;0.16;48.01;101294.34;5033348;28;20221;-83
2022/03/12 01:02:47;;;;;;;10.70;5.27;;;;;;;0.14;48.46;101287.38;5037806;28;20198;-83
2022/03/12 01:05:17;;;;;;;6.77;5.27;;;;;;;0.13;48.37;101288.25;5037397;28;20206;-83
2022/03/12 01:07:44;;;;;;;8.30;5.60;;;;;;;0.09;48.48;101290.03;5024478;28;20312;-82
2022/03/12 01:10:12;;;;;;;9.00;5.60;;;;;;;0.07;48.35;101291.81;5035920;28;20202;-82
2022/03/12 01:12:39;;;;;;;8.13;5.10;;;;;;;0.05;48.63;101285.72;5041773;28;20209;-82
2022/03/12 01:15:07;;;;;;;11.17;5.90;;;;;;;0.02;48.53;101290.97;5033844;28;20395;-82
2022/03/12 01:17:34;;;;;;;9.63;6.00;;;;;;;-0.01;48.70;101284.03;5037783;28;20229;-82
2022/03/12 01:20:02;;;;;;;8.30;6.03;;;;;;;-0.04;48.68;101276.22;5035136;28;20210;-82
2022/03/12 01:22:33;;;;;;;9.20;5.63;;;;;;;-0.09;48.93;101277.13;5040157;28;20613;-82
2022/03/12 01:24:59;;;;;;;9.60;5.50;;;;;;;-0.14;48.85;101284.16;5039908;28;20779;-82
2022/03/12 01:27:26;;;;;;;9.40;6.67;;;;;;;-0.19;49.12;101281.59;5032503;28;20248;-83
2022/03/12 01:29:52;;;;;;;7.20;5.30;;;;;;;-0.23;49.33;101282.50;5039689;28;20206;-83
2022/03/12 01:32:19;;;;;;;8.20;5.40;;;;;;;-0.24;49.15;101287.75;5035788;28;20202;-83
2022/03/12 01:34:45;;;;;;;7.23;5.47;;;;;;;-0.27;49.02;101279.91;5034338;28;20226;-83
2022/03/12 01:37:14;;;;;;;10.33;5.40;;;;;;;-0.28;49.01;101276.44;5034727;28;20281;-83
2022/03/12 01:39:42;;;;;;;9.43;5.03;;;;;;;-0.30;48.91;101277.31;5023636;28;20745;-83
2022/03/12 01:42:09;;;;;;;8.97;5.53;;;;;;;-0.34;48.94;101279.09;5036262;28;20213;-82
2022/03/12 01:44:35;;;;;;;9.30;5.70;;;;;;;-0.35;49.10;101280.84;5036004;28;20208;-83
2022/03/12 01:47:07;;;;;;;9.70;6.07;;;;;;;-0.37;49.28;101276.53;5037557;28;20300;-83
2022/03/12 01:49:34;;;;;;;8.50;5.83;;;;;;;-0.38;49.16;101277.41;5025346;28;20207;-82
2022/03/12 01:52:01;;;;;;;9.40;6.17;;;;;;;-0.41;49.21;101270.44;5031677;28;20754;-82
2022/03/12 01:54:30;;;;;;;7.97;5.77;;;;;;;-0.41;49.43;101267.81;5032398;28;20234;-82
2022/03/12 01:57:00;;;;;;;9.03;5.50;;;;;;;-0.42;49.46;101267.84;5043762;28;20210;-82
2022/03/12 01:59:26;;;;;;;7.63;4.90;;;;;;;-0.47;49.36;101256.53;5036164;28;20537;-83
2022/03/12 02:01:55;;;;;;;8.53;5.73;;;;;;;-0.49;49.59;101259.16;5030318;28;20217;-82
2022/03/12 02:04:22;;;;;;;8.17;5.50;;;;;;;-0.51;49.99;101262.66;5036078;28;20238;-82
2022/03/12 02:06:50;;;;;;;9.40;5.27;;;;;;;-0.53;49.42;101262.69;5036529;28;20297;-82
2022/03/12 02:09:17;;;;;;;7.43;5.27;;;;;;;-0.56;49.60;101259.25;5035828;28;20580;-82
2022/03/12 02:11:50;;;;;;;8.97;4.93;;;;;;;-0.60;49.75;101252.28;5030647;28;20206;-82
2022/03/12 02:14:21;;;;;;;6.63;4.47;;;;;;;-0.63;50.21;101242.72;5036436;28;20202;-82
2022/03/12 02:16:50;;;;;;;8.77;6.00;;;;;;;-0.67;50.24;101242.75;5033256;28;20202;-82
2022/03/12 02:19:18;;;;;;;8.70;5.37;;;;;;;-0.71;50.30;101237.53;5021371;28;20254;-82
2022/03/12 02:21:51;;;;;;;8.13;5.63;;;;;;;-0.74;50.10;101228.88;5031253;28;20708;-82
2022/03/12 02:24:21;;;;;;;8.50;6.13;;;;;;;-0.75;50.46;101235.84;5035387;28;20197;-83
2022/03/12 02:26:49;;;;;;;7.53;4.53;;;;;;;-0.77;50.72;101227.13;5033259;28;20214;-82
2022/03/12 02:29:19;;;;;;;8.10;4.90;;;;;;;-0.78;50.29;101222.78;5023732;28;20568;-82
2022/03/12 02:31:48;;;;;;;8.70;5.03;;;;;;;-0.78;50.33;101224.53;5032672;28;20613;-82
2022/03/12 02:34:21;;;;;;;8.87;4.93;;;;;;;-0.78;50.34;101238.47;5036255;28;20232;-82
2022/03/12 02:36:49;;;;;;;7.23;5.23;;;;;;;-0.79;49.92;101241.09;5033062;28;20303;-82
2022/03/12 02:39:17;;;;;;;8.20;5.30;;;;;;;-0.80;50.08;101253.31;5019945;28;20245;-82
2022/03/12 02:41:45;;;;;;;6.93;5.13;;;;;;;-0.78;50.41;101245.47;5031812;28;20206;-82
2022/03/12 02:44:18;;;;;;;7.30;5.27;;;;;;;-0.79;50.13;101244.59;5036652;28;20592;-82
2022/03/12 02:47:16;;;;;;;8.27;5.07;;;;;;;-0.79;50.19;101249.81;5035068;28;20625;-82
2022/03/12 02:49:47;;;;;;;8.20;4.67;;;;;;;-0.80;49.90;101252.44;5026271;28;20306;-83
2022/03/12 02:52:14;;;;;;;7.77;4.73;;;;;;;-0.81;49.67;101240.25;5031651;28;20289;-83
2022/03/12 02:54:41;;;;;;;7.40;5.07;;;;;;;-0.82;50.22;101239.38;5019336;28;20641;-82
2022/03/12 02:57:08;;;;;;;8.00;5.17;;;;;;;-0.83;49.99;101232.41;5026237;28;20264;-82
2022/03/12 02:59:34;;;;;;;6.30;4.50;;;;;;;-0.84;50.15;101238.50;5034336;28;20202;-82
2022/03/12 03:02:03;;;;;;;10.47;5.27;;;;;;;-0.86;50.37;101234.16;5019573;28;20664;-82
2022/03/12 03:04:35;;;;;;;7.17;5.60;;;;;;;-0.87;49.91;101232.44;5036447;28;20213;-81
2022/03/12 03:07:02;;;;;;;9.00;5.40;;;;;;;-0.89;50.19;101234.19;5029180;28;20241;-82
2022/03/12 03:09:29;;;;;;;6.27;4.87;;;;;;;-0.92;50.17;101229.00;5022418;28;20212;-82
2022/03/12 03:11:57;;;;;;;9.20;5.20;;;;;;;-0.95;50.35;101229.91;5019457;28;20566;-81
2022/03/12 03:14:27;;;;;;;8.93;5.67;;;;;;;-0.97;50.47;101234.25;5032144;28;20221;-81
2022/03/12 03:16:54;;;;;;;7.17;5.53;;;;;;;-1.00;50.63;101246.47;5022697;28;20253;-81
2022/03/12 03:19:25;;;;;;;8.60;5.47;;;;;;;-1.03;50.58;101236.91;5033951;28;20732;-81
2022/03/12 03:21:54;;;;;;;8.57;5.60;;;;;;;-1.05;50.56;101238.66;5033943;28;20245;-82
2022/03/12 03:24:21;;;;;;;9.33;6.43;;;;;;;-1.09;50.59;101231.75;5035523;28;20205;-81
2022/03/12 03:26:53;;;;;;;9.33;6.63;;;;;;;-1.12;50.69;101231.75;5035457;28;20213;-81
2022/03/12 03:29:21;;;;;;;7.40;5.07;;;;;;;-1.15;50.49;101221.31;5027172;28;20647;-81
2022/03/12 03:31:48;;;;;;;7.80;5.40;;;;;;;-1.19;50.38;101225.69;5032894;28;20695;-82
2022/03/12 03:34:15;;;;;;;7.37;5.70;;;;;;;-1.23;50.33;101249.22;5030182;28;20222;-82
2022/03/12 03:36:42;;;;;;;8.57;4.80;;;;;;;-1.26;50.38;101254.50;5035539;28;20206;-82
2022/03/12 03:39:10;;;;;;;7.40;5.40;;;;;;;-1.26;49.98;101257.09;5035675;28;20261;-82
2022/03/12 03:41:36;;;;;;;10.87;5.57;;;;;;;-1.26;50.15;101250.13;5035990;28;20216;-81
2022/03/12 03:44:05;;;;;;;7.67;4.80;;;;;;;-1.25;50.47;101256.19;5034538;28;20206;-81
2022/03/12 03:46:32;;;;;;;7.90;4.70;;;;;;;-1.26;49.90;101244.03;5031882;28;20210;-80
2022/03/12 03:48:59;;;;;;;7.40;4.47;;;;;;;-1.27;50.20;101248.41;5035922;28;20218;-82
2022/03/12 03:51:25;;;;;;;6.43;4.83;;;;;;;-1.27;49.67;101232.72;5030908;28;20290;-80
2022/03/12 03:53:52;;;;;;;8.63;5.47;;;;;;;-1.27;50.06;101239.69;5033243;28;20236;-81
2022/03/12 03:56:21;;;;;;;6.50;4.30;;;;;;;-1.25;49.69;101240.53;5030257;28;20206;-80
2022/03/12 03:58:47;;;;;;;7.53;4.73;;;;;;;-1.25;49.49;101246.63;5028970;28;20256;-80
2022/03/12 04:01:17;;;;;;;8.97;5.30;;;;;;;-1.23;49.80;101254.44;5028599;28;20213;-80
2022/03/12 04:03:47;;;;;;;9.37;5.40;;;;;;;-1.24;49.71;101247.50;5034307;28;20645;-81
2022/03/12 04:06:15;;;;;;;13.43;5.47;;;;;;;-1.24;49.30;101250.97;5032453;28;20197;-80
2022/03/12 04:08:42;;;;;;;7.10;5.17;;;;;;;-1.22;49.40;101253.56;5029312;28;20265;-81
2022/03/12 04:11:15;;;;;;;7.47;5.23;;;;;;;-1.21;49.43;101258.78;5030365;28;20244;-81
2022/03/12 04:13:43;;;;;;;6.10;4.47;;;;;;;-1.24;49.39;101264.03;5035196;28;20578;-81
2022/03/12 04:16:10;;;;;;;7.63;4.73;;;;;;;-1.26;49.29;101264.94;5036104;28;20572;-81
2022/03/12 04:18:38;;;;;;;6.57;4.83;;;;;;;-1.30;49.22;101273.66;5038914;28;20234;-81
2022/03/12 04:21:05;;;;;;;10.97;5.30;;;;;;;-1.33;49.86;101265.84;5034723;28;20665;-82
2022/03/12 04:23:32;;;;;;;6.53;4.67;;;;;;;-1.35;49.61;101276.31;5034000;28;20202;-81
2022/03/12 04:25:59;;;;;;;6.40;4.60;;;;;;;-1.37;50.03;101266.72;5038953;28;20625;-81
2022/03/12 04:28:30;;;;;;;7.23;4.80;;;;;;;-1.40;49.86;101249.31;5037028;28;20229;-82
2022/03/12 04:30:59;;;;;;;6.77;4.43;;;;;;;-1.42;50.10;101254.53;5022263;28;20253;-83
2022/03/12 04:33:25;;;;;;;7.50;4.57;;;;;;;-1.42;50.20;101251.94;5037631;28;20203;-82
2022/03/12 04:35:52;;;;;;;7.23;4.80;;;;;;;-1.42;49.96;101264.13;5045323;28;20229;-83
2022/03/12 04:38:19;;;;;;;8.27;4.77;;;;;;;-1.41;50.17;101260.63;5040002;28;20233;-82
2022/03/12 04:40:47;;;;;;;8.87;4.50;;;;;;;-1.41;50.23;101271.97;5037508;28;20201;-82
2022/03/12 04:43:14;;;;;;;5.70;4.23;;;;;;;-1.40;49.69;101273.69;5036825;28;20214;-82
2022/03/12 04:45:43;;;;;;;6.30;3.70;;;;;;;-1.38;49.44;101275.44;5038137;28;20289;-83
2022/03/12 04:48:13;;;;;;;7.50;4.07;;;;;;;-1.38;49.73;101276.31;5040437;28;20314;-82
2022/03/12 04:50:40;;;;;;;6.63;4.10;;;;;;;-1.34;49.22;101278.03;5038820;28;20266;-82
2022/03/12 04:53:08;;;;;;;7.40;4.20;;;;;;;-1.34;49.42;101283.25;5039339;28;20213;-82
2022/03/12 04:55:36;;;;;;;4.93;3.67;;;;;;;-1.32;49.14;101286.75;5041168;28;20241;-82
2022/03/12 04:58:02;;;;;;;5.00;3.57;;;;;;;-1.30;48.83;101289.34;5040129;28;20250;-82
2022/03/12 05:00:31;;;;;;;5.07;3.40;;;;;;;-1.29;48.96;101283.25;5040405;28;20269;-82
2022/03/12 05:03:08;;;;;;;7.03;4.20;;;;;;;-1.28;48.53;101282.38;5037640;28;20213;-82
2022/03/12 05:05:39;;;;;;;8.50;3.90;;;;;;;-1.26;48.76;101280.63;5026991;28;20214;-83
2022/03/12 05:08:07;;;;;;;6.07;3.97;;;;;;;-1.27;48.72;101284.97;5039503;28;20720;-83
2022/03/12 05:10:34;;;;;;;7.73;4.20;;;;;;;-1.27;48.86;101287.59;5036533;28;20202;-83
2022/03/12 05:13:01;;;;;;;6.23;3.93;;;;;;;-1.26;48.85;101286.72;5040125;28;20226;-82
2022/03/12 05:15:32;;;;;;;5.50;3.90;;;;;;;-1.26;48.60;101291.09;5037674;28;20222;-83
2022/03/12 05:18:00;;;;;;;5.87;4.03;;;;;;;-1.27;48.94;101294.56;5035654;28;20258;-83
2022/03/12 05:20:28;;;;;;;7.57;3.90;;;;;;;-1.27;48.31;101297.19;5030728;28;20245;-82
2022/03/12 05:22:56;;;;;;;5.70;4.23;;;;;;;-1.29;48.37;101301.53;5038049;28;20199;-82
2022/03/12 05:25:22;;;;;;;6.03;3.90;;;;;;;-1.28;48.77;101304.16;5035234;28;20206;-82
2022/03/12 05:27:52;;;;;;;7.40;4.13;;;;;;;-1.31;48.64;101309.38;5036658;28;20230;-82
2022/03/12 05:30:20;;;;;;;9.17;4.17;;;;;;;-1.31;48.83;101312.00;5040140;28;20226;-83
2022/03/12 05:32:46;;;;;;;6.27;3.40;;;;;;;-1.30;48.32;101305.03;5037176;28;20198;-83
2022/03/12 05:35:15;;;;;;;7.43;3.90;;;;;;;-1.32;48.67;101314.63;5019462;28;20229;-82
2022/03/12 05:37:44;;;;;;;6.97;4.07;;;;;;;-1.32;49.19;101323.31;5033613;28;20276;-83
2022/03/12 05:40:17;;;;;;;7.20;4.27;;;;;;;-1.33;49.25;101321.59;5034116;28;20210;-82
2022/03/12 05:42:46;;;;;;;7.57;4.47;;;;;;;-1.34;48.83;101322.47;5035545;28;20268;-83
2022/03/12 05:45:15;;;;;;;7.27;4.53;;;;;;;-1.34;49.43;101312.00;5034096;28;20205;-83
2022/03/12 05:47:42;;;;;;;7.20;3.50;;;;;;;-1.35;49.25;101317.25;5035767;28;20230;-83
2022/03/12 05:50:11;;;;;;;6.37;4.40;;;;;;;-1.35;49.50;101323.34;5049157;28;20754;-82
2022/03/12 05:52:38;;;;;;;9.03;4.50;;;;;;;-1.36;49.46;101323.34;5035692;28;20205;-83
2022/03/12 05:55:08;;;;;;;6.73;4.23;;;;;;;-1.34;49.85;101326.81;5037716;28;20222;-82
2022/03/12 05:57:36;;;;;;;4.67;3.90;;;;;;;-1.34;49.87;101332.03;5034999;28;20791;-83
2022/03/12 06:00:04;;;;;;;6.97;5.10;;;;;;;-1.33;49.93;101323.31;5031702;28;20219;-83
2022/03/12 06:02:31;;;;;;;5.33;4.40;;;;;;;-1.33;49.81;101334.66;5035135;28;20194;-83
2022/03/12 06:04:59;;;;;;;6.60;4.40;;;;;;;-1.32;49.87;101325.94;5038660;28;20314;-83
2022/03/12 06:07:27;;;;;;;6.93;4.90;;;;;;;-1.31;49.91;101339.88;5035152;28;20253;-82
2022/03/12 06:09:54;;;;;;;9.17;5.63;;;;;;;-1.28;50.45;101337.25;5039026;28;20684;-83
2022/03/12 06:12:21;;;;;;;10.23;4.60;;;;;;;-1.27;50.68;101341.59;5034923;28;20805;-83
2022/03/12 06:14:51;;;;;;;6.50;4.27;;;;;;;-1.24;50.74;101352.03;5038225;28;20230;-83
2022/03/12 06:17:19;;;;;;;9.50;4.90;;;;;;;-1.22;50.74;101345.03;5034603;28;20348;-82
2022/03/12 06:19:45;;;;;;;8.00;4.77;;;;;;;-1.20;50.73;101338.06;5030121;28;20297;-82
2022/03/12 06:22:12;;;;;;;5.60;4.20;;;;;;;-1.15;50.88;101334.56;5041094;28;20206;-82
2022/03/12 06:24:39;;;;;;;4.90;3.20;;;;;;;-1.11;50.37;101335.44;5039790;28;20217;-82
2022/03/12 06:27:06;;;;;;;6.93;3.87;;;;;;;-1.02;50.82;101337.13;5030678;28;20210;-82
2022/03/12 06:29:34;;;;;;;6.10;4.10;;;;;;;-0.97;50.40;101341.47;5036257;28;20630;-82
2022/03/12 06:32:03;;;;;;;7.50;4.20;;;;;;;-0.90;50.07;101343.16;5032489;28;20244;-83
2022/03/12 06:34:29;;;;;;;6.13;3.37;;;;;;;-0.84;50.23;101343.13;5037108;28;20719;-82
2022/03/12 06:36:56;;;;;;;8.17;4.27;;;;;;;-0.78;49.97;101340.47;5037329;28;20210;-83
2022/03/12 06:39:22;;;;;;;6.60;3.83;;;;;;;-0.71;49.89;101349.13;5032610;28;20224;-83
2022/03/12 06:41:49;;;;;;;10.57;3.70;;;;;;;-0.65;49.87;101346.50;5033216;28;20203;-82
2022/03/12 06:44:19;;;;;;;5.67;3.80;;;;;;;-0.58;50.07;101348.19;5032767;28;20260;-83
2022/03/12 06:46:47;;;;;;;4.50;3.60;;;;;;;-0.49;50.04;101355.09;5033100;28;20210;-83
2022/03/12 06:49:15;;;;;;;5.70;4.00;;;;;;;-0.40;49.94;101352.44;5029702;28;20234;-82
2022/03/12 06:51:42;;;;;;;5.53;3.83;;;;;;;-0.33;50.31;101351.50;5023286;28;20217;-82
2022/03/12 06:54:09;;;;;;;5.67;3.40;;;;;;;-0.24;50.37;101359.28;5026965;28;20205;-83
2022/03/12 06:56:39;;;;;;;5.33;3.63;;;;;;;-0.14;50.03;101366.19;5021058;28;20758;-82
2022/03/12 06:59:06;;;;;;;4.73;3.63;;;;;;;-0.08;49.06;101360.91;5024067;28;20223;-82
2022/03/12 07:01:33;;;;;;;5.90;3.10;;;;;;;0.00;48.85;101361.69;5030299;28;20669;-82
2022/03/12 07:03:59;;;;;;;4.43;3.27;;;;;;;0.10;48.13;101364.25;5025199;28;20580;-83
2022/03/12 07:06:27;;;;;;;3.67;2.70;;;;;;;0.17;47.87;101361.56;5023239;28;20198;-82
2022/03/12 07:08:53;;;;;;;4.90;3.07;;;;;;;0.25;47.27;101361.47;5029557;28;20224;-82
2022/03/12 07:11:20;;;;;;;4.07;2.60;;;;;;;0.32;46.47;101371.88;5028791;28;20202;-83
2022/03/12 07:13:47;;;;;;;6.03;2.50;;;;;;;0.44;45.77;101368.25;5027014;28;20207;-83
2022/03/12 07:16:14;;;;;;;3.57;2.53;;;;;;;0.57;44.81;101374.22;5023655;28;20233;-83
2022/03/12 07:18:40;;;;;;;4.03;2.50;;;;;;;0.69;44.03;101367.13;5026487;28;20361;-82
2022/03/12 07:21:07;;;;;;;3.50;2.50;;;;;;;0.85;43.14;101374.81;5026841;28;20313;-83
2022/03/12 07:23:35;;;;;;;4.03;2.50;;;;;;;0.99;41.96;101367.63;5034537;28;20202;-82
2022/03/12 07:26:02;;;;;;;2.97;2.30;;;;;;;1.14;41.29;101366.56;5028795;28;20562;-82
2022/03/12 07:28:31;;;;;;;3.30;2.40;;;;;;;1.29;40.38;101367.22;5025677;28;20222;-83
2022/03/12 07:30:58;;;;;;;4.77;3.00;;;;;;;1.44;39.92;101371.38;5026287;28;20591;-83
2022/03/12 07:33:25;;;;;;;4.23;2.73;;;;;;;1.55;39.07;101364.22;5026594;28;21183;-83
2022/03/12 07:35:51;;;;;;;4.37;2.63;;;;;;;1.69;38.22;101378.00;5029389;28;20254;-82
2022/03/12 07:38:18;;;;;;;3.30;2.60;;;;;;;1.80;38.37;101369.06;5026089;28;20234;-83
2022/03/12 07:40:46;;;;;;;2.93;2.40;;;;;;;1.94;37.56;101382.88;5030438;28;20216;-82
2022/03/12 07:43:12;;;;;;;5.00;2.50;;;;;;;2.08;36.80;101388.78;5023560;28;20383;-83
2022/03/12 07:45:39;;;;;;;3.80;2.63;;;;;;;2.24;35.66;101395.50;5025144;28;20194;-82
2022/03/12 07:48:07;;;;;;;5.67;2.63;;;;;;;2.40;35.50;101396.09;5028573;28;20229;-83
2022/03/12 07:50:34;;;;;;;3.70;2.60;;;;;;;2.54;35.16;101388.81;5020734;28;20265;-83
2022/03/12 07:53:01;;;;;;;5.47;2.87;;;;;;;2.71;35.17;101399.88;5021341;28;20202;-84
2022/03/12 07:55:27;;;;;;;5.57;2.73;;;;;;;2.87;34.17;101394.31;5025054;28;20321;-83
2022/03/12 07:57:56;;;;;;;5.83;3.00;;;;;;;3.05;34.13;101388.69;5023941;28;20314;-83
2022/03/12 08:00:28;;;;;;;4.10;2.90;;;;;;;3.21;33.78;101376.09;5025870;28;20282;-83
2022/03/12 08:02:55;;;;;;;3.50;2.37;;;;;;;3.40;32.70;101382.69;5024243;28;20206;-83
2022/03/12 08:05:24;;;;;;;5.37;3.10;;;;;;;3.56;33.60;101380.56;5024827;28;20202;-82
2022/03/12 08:07:52;;;;;;;5.10;3.00;;;;;;;3.74;33.21;101388.06;5023399;28;20290;-84
2022/03/12 08:10:18;;;;;;;4.43;2.47;;;;;;;3.89;32.21;101377.13;5026391;28;20210;-83
2022/03/12 08:12:46;;;;;;;4.40;3.20;;;;;;;4.06;31.99;101379.34;5021796;28;20207;-81
2022/03/12 08:15:15;;;;;;;4.10;2.93;;;;;;;4.22;32.17;101378.06;5023929;28;20298;-83
2022/03/12 08:17:41;;;;;;;6.20;2.73;;;;;;;4.38;31.39;101392.59;5021231;28;20233;-82
2022/03/12 08:20:09;;;;;;;6.40;3.43;;;;;;;4.52;30.75;101386.94;5023155;28;20833;-84
2022/03/12 08:22:38;;;;;;;4.87;3.60;;;;;;;4.68;30.88;101388.25;5020902;28;20217;-83
2022/03/12 08:25:09;;;;;;;3.47;2.60;;;;;;;4.83;30.87;101382.59;5020102;28;20202;-83
2022/03/12 08:27:36;;;;;;;4.50;2.93;;;;;;;4.97;30.47;101384.81;5023368;28;20241;-81
2022/03/12 08:30:08;;;;;;;7.67;4.00;;;;;;;5.13;30.13;101382.59;5017050;28;20645;-82
2022/03/12 08:32:36;;;;;;;3.67;2.50;;;;;;;5.28;30.03;101384.78;5021080;28;20199;-84
2022/03/12 08:35:05;;;;;;;3.67;2.93;;;;;;;5.43;29.33;101386.97;5026435;28;20574;-85
2022/03/12 08:37:32;;;;;;;4.37;3.27;;;;;;;5.56;29.53;101385.66;5026212;28;20230;-83
2022/03/12 08:39:58;;;;;;;5.23;3.40;;;;;;;5.72;29.05;101382.56;5024363;28;20216;-82
2022/03/12 08:42:25;;;;;;;4.47;3.20;;;;;;;5.84;28.86;101375.09;5024353;28;20182;-82
2022/03/12 08:44:54;;;;;;;4.50;3.17;;;;;;;5.99;28.90;101368.47;5021796;28;20211;-81
2022/03/12 08:47:21;;;;;;;4.33;3.20;;;;;;;6.15;29.13;101374.13;5025584;28;20231;-81
2022/03/12 08:49:49;;;;;;;4.27;3.20;;;;;;;6.32;28.82;101373.53;5029731;28;20211;-86
2022/03/12 08:52:15;;;;;;;4.30;3.23;;;;;;;6.44;28.36;101375.78;5022538;28;20202;-85
2022/03/12 08:54:42;;;;;;;4.70;3.30;;;;;;;6.55;27.99;101373.63;5018075;28;20199;-85
2022/03/12 08:57:08;;;;;;;4.47;3.00;;;;;;;6.66;27.82;101375.88;5019666;28;20551;-86
2022/03/12 08:59:35;;;;;;;4.53;3.50;;;;;;;6.78;28.06;101370.16;5023592;28;20249;-86
2022/03/12 09:02:01;;;;;;;8.00;3.60;;;;;;;6.89;27.45;101358.25;5024491;28;20210;-85
2022/03/12 09:04:29;;;;;;;5.30;3.60;;;;;;;7.01;27.73;101362.22;5020833;28;20238;-84
2022/03/12 09:06:57;;;;;;;5.37;3.30;;;;;;;7.13;27.51;101360.91;5024273;28;20214;-85
2022/03/12 09:09:24;;;;;;;5.17;3.57;;;;;;;7.26;27.88;101351.56;5026192;28;20289;-86
2022/03/12 09:11:50;;;;;;;5.87;3.53;;;;;;;7.40;27.26;101365.13;5028717;28;20217;-86
2022/03/12 09:14:18;;;;;;;4.97;3.70;;;;;;;7.52;27.92;101366.47;5029802;28;20847;-85
2022/03/12 09:16:46;;;;;;;5.63;3.63;;;;;;;7.65;27.95;101363.25;5029997;28;20254;-85
2022/03/12 09:19:12;;;;;;;4.03;3.30;;;;;;;7.79;28.07;101359.19;5026559;28;20381;-85
2022/03/12 09:21:39;;;;;;;5.90;4.33;;;;;;;7.95;27.30;101360.28;5027319;28;20226;-85
2022/03/12 09:24:07;;;;;;;5.30;3.63;;;;;;;8.07;27.74;101354.47;5029493;28;20540;-86
2022/03/12 09:26:35;;;;;;;4.47;3.20;;;;;;;8.16;27.00;101359.41;5022220;28;20233;-84
2022/03/12 09:29:03;;;;;;;5.47;3.67;;;;;;;8.25;26.60;101351.03;5023493;28;20223;-84
2022/03/12 09:31:30;;;;;;;5.40;3.37;;;;;;;8.33;26.86;101348.97;5024613;28;20218;-85
2022/03/12 09:33:57;;;;;;;4.07;3.40;;;;;;;8.43;26.88;101344.09;5027985;28;20202;-84
2022/03/12 09:36:24;;;;;;;5.90;3.70;;;;;;;8.55;26.90;101346.25;5022015;28;20287;-85
2022/03/12 09:38:50;;;;;;;4.80;3.67;;;;;;;8.66;26.90;101348.41;5035495;28;20222;-85
2022/03/12 09:41:18;;;;;;;4.33;3.60;;;;;;;8.75;27.46;101336.53;5028299;28;20210;-84
2022/03/12 09:43:46;;;;;;;5.20;3.33;;;;;;;8.84;26.42;101339.63;5032473;28;20226;-85
2022/03/12 09:46:13;;;;;;;6.63;3.73;;;;;;;8.94;27.05;101334.78;5029645;28;20641;-86
2022/03/12 09:48:39;;;;;;;7.43;4.27;;;;;;;9.01;26.92;101329.09;5032823;28;20222;-86
2022/03/12 09:51:06;;;;;;;8.80;3.80;;;;;;;9.11;26.82;101332.19;5029928;28;20691;-85
2022/03/12 09:53:34;;;;;;;5.80;4.07;;;;;;;9.21;26.36;101328.16;5030986;28;20283;-85
2022/03/12 09:56:02;;;;;;;5.37;4.03;;;;;;;9.28;26.88;101329.63;5031581;28;20222;-87
2022/03/12 09:58:31;;;;;;;7.20;4.77;;;;;;;9.33;26.48;101324.91;5024991;28;20602;-86
2022/03/12 10:00:57;;;;;;;6.53;4.10;;;;;;;9.38;26.13;101322.91;5024887;28;20401;-85
2022/03/12 10:03:24;;;;;;;7.93;4.10;;;;;;;9.43;26.54;101316.53;5026177;28;20234;-85
2022/03/12 10:05:50;;;;;;;5.40;4.10;;;;;;;9.47;26.48;101321.63;5033848;28;20289;-85
2022/03/12 10:08:17;;;;;;;5.33;4.53;;;;;;;9.49;26.51;101322.41;5038346;28;21091;-85
2022/03/12 10:10:44;;;;;;;8.77;5.97;;;;;;;9.54;27.12;101308.88;5030464;28;20225;-86
2022/03/12 10:13:11;;;;;;;7.00;5.20;;;;;;;9.59;27.01;101302.41;5030813;28;20216;-86
2022/03/12 10:15:39;;;;;;;5.93;4.20;;;;;;;9.67;27.71;101312.69;5031458;28;20235;-87
2022/03/12 10:18:06;;;;;;;6.10;4.50;;;;;;;9.75;27.42;101318.47;5028195;28;20257;-87
2022/03/12 10:20:33;;;;;;;6.70;4.13;;;;;;;9.81;27.05;101318.19;5034694;28;20211;-87
2022/03/12 10:22:59;;;;;;;6.03;4.10;;;;;;;9.82;26.85;101314.59;5040037;28;20274;-87
2022/03/12 10:25:26;;;;;;;5.53;4.20;;;;;;;9.82;26.79;101317.25;5028746;28;20206;-87
2022/03/12 10:27:52;;;;;;;5.67;4.60;;;;;;;9.88;26.85;101319.59;5036775;28;20234;-86
2022/03/12 10:30:19;;;;;;;7.53;4.57;;;;;;;9.90;26.78;101312.38;5028969;28;20604;-84
2022/03/12 10:32:49;;;;;;;5.93;3.90;;;;;;;9.94;27.38;101305.97;5026669;28;20210;-84
2022/03/12 10:35:19;;;;;;;6.50;4.43;;;;;;;9.99;27.30;101309.28;5027373;28;20199;-84
2022/03/12 10:37:47;;;;;;;4.80;3.77;;;;;;;10.05;27.06;101310.75;5030570;28;20238;-83
2022/03/12 10:40:17;;;;;;;12.20;4.60;;;;;;;10.12;27.15;101306.00;5024135;28;20211;-84
2022/03/12 10:42:48;;;;;;;6.97;4.80;;;;;;;10.18;27.53;101301.22;5028375;28;20302;-83
2022/03/12 10:45:17;;;;;;;5.83;4.47;;;;;;;10.27;27.27;101306.09;5032410;28;20217;-84
2022/03/12 10:47:46;;;;;;;6.23;4.40;;;;;;;10.35;27.71;101298.59;5029381;28;20249;-83
2022/03/12 10:50:18;;;;;;;6.10;4.53;;;;;;;10.45;27.92;101301.63;5035484;28;20206;-85
2022/03/12 10:52:49;;;;;;;7.37;5.20;;;;;;;10.54;27.98;101294.97;5030050;28;20230;-83
2022/03/12 10:55:19;;;;;;;6.60;4.70;;;;;;;10.57;27.92;101300.13;5021019;28;20199;-83
2022/03/12 10:57:56;;;;;;;10.10;4.23;;;;;;;10.61;27.75;101297.19;5037618;28;20233;-83
2022/03/12 11:00:23;;;;;;;7.17;5.13;;;;;;;10.64;28.30;101299.69;5031941;28;20218;-83
2022/03/12 11:02:54;;;;;;;7.63;4.53;;;;;;;10.73;28.48;101303.69;5026004;28;20205;-83
2022/03/12 11:05:28;;;;;;;6.43;4.70;;;;;;;10.81;28.48;101292.59;5030907;28;20206;-83
2022/03/12 11:08:07;;;;;;;6.63;4.90;;;;;;;10.88;28.27;101289.53;5030227;28;20237;-83
2022/03/12 11:10:37;;;;;;;5.63;4.77;;;;;;;10.89;28.43;101287.72;5025820;28;20230;-83
2022/03/12 11:13:05;;;;;;;6.17;4.73;;;;;;;10.93;28.67;101283.94;5030397;28;20205;-83
2022/03/12 11:15:33;;;;;;;6.87;4.40;;;;;;;11.00;28.63;101290.66;5033221;28;20209;-84
2022/03/12 11:18:07;;;;;;;6.70;5.40;;;;;;;11.04;28.77;101284.22;5033310;28;20230;-83
2022/03/12 11:20:36;;;;;;;7.17;4.90;;;;;;;11.15;29.13;101292.47;5027324;28;20195;-84
2022/03/12 11:23:08;;;;;;;6.00;5.10;;;;;;;11.24;29.38;101294.66;5031062;28;20207;-83
2022/03/12 11:25:36;;;;;;;9.17;5.30;;;;;;;11.33;29.64;101291.44;5026113;28;20296;-83
2022/03/12 11:28:18;;;;;;;7.10;4.93;;;;;;;11.44;29.72;101278.38;5032130;28;20240;-82
2022/03/12 11:30:44;;;;;;;8.07;5.63;;;;;;;11.53;29.89;101278.78;5025225;28;20198;-83
2022/03/12 11:33:12;;;;;;;7.97;4.73;;;;;;;11.60;30.02;101270.38;5025091;28;20281;-83